Lake of the Forest, Kansas
Current Conditions -  °F | °C
As of 7:53 PM on Friday 24 Oct 2014 (Local Time) from KIXD Reporting Station
Clear Clear  
Wind Chill: 67°   Ceiling: Unl
Heat Index: 67°   Visibility: 10mi
Dew Point: 61°   Wind: 12mph
Humidity: 81%   Direction: 180°S
Pressure: 29.96"   Gusts: NA
Location:  39.0619°N, 94.8881°W
Report Text: KIXD 250053Z 18010KT 10SM CLR 19/16 A2996 RMK AO2 SLP142 T01940161
Loading
Personal Weather Stations






























Interactive Weather Map
Tropical Storm Tracking
New forecast layout! Learn more

10-Day Weather Forecast

Advertisements
Track Severe Weather on mobile